sensor_id;sensor_type;location;lat;lon;timestamp;temperature;humidity
30648;DHT22;17683;53.360;9.736;2023-02-15T00:01:28;3.40;99.90
30648;DHT22;17683;53.360;9.736;2023-02-15T00:03:54;3.40;99.90
30648;DHT22;17683;53.360;9.736;2023-02-15T00:06:20;3.40;99.90
30648;DHT22;17683;53.360;9.736;2023-02-15T00:08:46;3.40;99.90
30648;DHT22;17683;53.360;9.736;2023-02-15T00:11:14;3.40;99.90
30648;DHT22;17683;53.360;9.736;2023-02-15T00:13:40;3.40;99.90
30648;DHT22;17683;53.360;9.736;2023-02-15T00:16:11;3.40;99.90
30648;DHT22;17683;53.360;9.736;2023-02-15T00:18:38;3.40;99.90
30648;DHT22;17683;53.360;9.736;2023-02-15T00:21:06;3.50;99.90
30648;DHT22;17683;53.360;9.736;2023-02-15T00:23:32;3.50;99.90
30648;DHT22;17683;53.360;9.736;2023-02-15T00:26:09;3.50;99.90
30648;DHT22;17683;53.360;9.736;2023-02-15T00:28:35;3.50;99.90
30648;DHT22;17683;53.360;9.736;2023-02-15T00:31:07;3.60;99.90
30648;DHT22;17683;53.360;9.736;2023-02-15T00:33:34;3.60;99.90
30648;DHT22;17683;53.360;9.736;2023-02-15T00:36:00;3.60;99.90
30648;DHT22;17683;53.360;9.736;2023-02-15T00:38:30;3.70;99.90
30648;DHT22;17683;53.360;9.736;2023-02-15T00:40:57;3.70;99.90
30648;DHT22;17683;53.360;9.736;2023-02-15T00:43:24;3.80;99.90
30648;DHT22;17683;53.360;9.736;2023-02-15T00:45:50;3.80;99.90
30648;DHT22;17683;53.360;9.736;2023-02-15T00:48:16;3.70;99.90
30648;DHT22;17683;53.360;9.736;2023-02-15T00:50:45;3.80;99.90
30648;DHT22;17683;53.360;9.736;2023-02-15T00:53:11;3.80;99.90
30648;DHT22;17683;53.360;9.736;2023-02-15T00:55:36;3.80;99.90
30648;DHT22;17683;53.360;9.736;2023-02-15T00:58:02;3.80;99.90
30648;DHT22;17683;53.360;9.736;2023-02-15T01:00:28;3.80;99.90
30648;DHT22;17683;53.360;9.736;2023-02-15T01:02:53;3.80;99.90
30648;DHT22;17683;53.360;9.736;2023-02-15T01:05:19;3.80;99.90
30648;DHT22;17683;53.360;9.736;2023-02-15T01:07:45;3.80;99.90
30648;DHT22;17683;53.360;9.736;2023-02-15T01:10:10;3.80;99.90
30648;DHT22;17683;53.360;9.736;2023-02-15T01:12:36;3.70;99.90
30648;DHT22;17683;53.360;9.736;2023-02-15T01:15:02;3.70;99.90
30648;DHT22;17683;53.360;9.736;2023-02-15T01:17:28;3.70;99.90
30648;DHT22;17683;53.360;9.736;2023-02-15T01:19:54;3.80;99.90
30648;DHT22;17683;53.360;9.736;2023-02-15T01:22:20;3.70;99.90
30648;DHT22;17683;53.360;9.736;2023-02-15T01:24:48;3.70;99.90
30648;DHT22;17683;53.360;9.736;2023-02-15T01:27:14;3.80;99.90
30648;DHT22;17683;53.360;9.736;2023-02-15T01:29:39;3.70;99.90
30648;DHT22;17683;53.360;9.736;2023-02-15T01:32:05;3.70;99.90
30648;DHT22;17683;53.360;9.736;2023-02-15T01:34:31;3.70;99.90
30648;DHT22;17683;53.360;9.736;2023-02-15T01:36:56;3.70;99.90
30648;DHT22;17683;53.360;9.736;2023-02-15T01:39:22;3.70;99.90
30648;DHT22;17683;53.360;9.736;2023-02-15T01:41:48;3.70;99.90
30648;DHT22;17683;53.360;9.736;2023-02-15T01:47:42;3.70;99.90
30648;DHT22;17683;53.360;9.736;2023-02-15T01:50:26;3.60;99.90
30648;DHT22;17683;53.360;9.736;2023-02-15T01:53:01;3.60;99.90
30648;DHT22;17683;53.360;9.736;2023-02-15T01:55:37;3.60;99.90
30648;DHT22;17683;53.360;9.736;2023-02-15T01:58:03;3.60;99.90
30648;DHT22;17683;53.360;9.736;2023-02-15T02:00:29;3.60;99.90
30648;DHT22;17683;53.360;9.736;2023-02-15T02:02:56;3.50;99.90
30648;DHT22;17683;53.360;9.736;2023-02-15T02:05:23;3.50;99.90
30648;DHT22;17683;53.360;9.736;2023-02-15T02:07:51;3.50;99.90
30648;DHT22;17683;53.360;9.736;2023-02-15T02:10:20;3.50;99.90
30648;DHT22;17683;53.360;9.736;2023-02-15T02:12:50;3.50;99.90
30648;DHT22;17683;53.360;9.736;2023-02-15T02:15:17;3.40;99.90
30648;DHT22;17683;53.360;9.736;2023-02-15T02:20:57;3.40;99.90
30648;DHT22;17683;53.360;9.736;2023-02-15T02:34:39;3.30;99.90
30648;DHT22;17683;53.360;9.736;2023-02-15T02:42:57;3.20;99.90
30648;DHT22;17683;53.360;9.736;2023-02-15T02:45:25;3.20;99.90
30648;DHT22;17683;53.360;9.736;2023-02-15T02:47:56;3.10;99.90
30648;DHT22;17683;53.360;9.736;2023-02-15T02:50:27;3.00;99.90
30648;DHT22;17683;53.360;9.736;2023-02-15T02:52:55;2.90;99.90
30648;DHT22;17683;53.360;9.736;2023-02-15T03:01:35;3.00;99.90
30648;DHT22;17683;53.360;9.736;2023-02-15T03:03:44;2.90;99.90
30648;DHT22;17683;53.360;9.736;2023-02-15T03:06:19;2.80;99.90
30648;DHT22;17683;53.360;9.736;2023-02-15T03:08:49;2.80;99.90
30648;DHT22;17683;53.360;9.736;2023-02-15T03:11:16;2.80;99.90
30648;DHT22;17683;53.360;9.736;2023-02-15T03:13:43;2.80;99.90
30648;DHT22;17683;53.360;9.736;2023-02-15T03:16:12;2.80;99.90
30648;DHT22;17683;53.360;9.736;2023-02-15T03:18:57;2.80;99.90
30648;DHT22;17683;53.360;9.736;2023-02-15T03:21:47;2.70;99.90
30648;DHT22;17683;53.360;9.736;2023-02-15T03:24:19;2.70;99.90
30648;DHT22;17683;53.360;9.736;2023-02-15T03:26:49;2.60;99.90
30648;DHT22;17683;53.360;9.736;2023-02-15T03:29:17;2.60;99.90
30648;DHT22;17683;53.360;9.736;2023-02-15T03:31:48;2.60;99.90
30648;DHT22;17683;53.360;9.736;2023-02-15T03:34:15;2.60;99.90
30648;DHT22;17683;53.360;9.736;2023-02-15T03:42:14;2.50;99.90
30648;DHT22;17683;53.360;9.736;2023-02-15T03:45:05;2.50;99.90
30648;DHT22;17683;53.360;9.736;2023-02-15T03:47:37;2.50;99.90
30648;DHT22;17683;53.360;9.736;2023-02-15T03:52:55;2.40;99.90
30648;DHT22;17683;53.360;9.736;2023-02-15T03:55:22;2.40;99.90
30648;DHT22;17683;53.360;9.736;2023-02-15T03:57:48;2.40;99.90
30648;DHT22;17683;53.360;9.736;2023-02-15T04:00:36;2.40;99.90
30648;DHT22;17683;53.360;9.736;2023-02-15T04:03:33;2.40;99.90
30648;DHT22;17683;53.360;9.736;2023-02-15T04:06:02;2.40;99.90
30648;DHT22;17683;53.360;9.736;2023-02-15T04:08:28;2.40;99.90
30648;DHT22;17683;53.360;9.736;2023-02-15T04:11:12;2.40;99.90
30648;DHT22;17683;53.360;9.736;2023-02-15T04:13:38;2.40;99.90
30648;DHT22;17683;53.360;9.736;2023-02-15T04:16:04;2.30;99.90
30648;DHT22;17683;53.360;9.736;2023-02-15T04:18:43;2.30;99.90
30648;DHT22;17683;53.360;9.736;2023-02-15T04:21:29;2.30;99.90
30648;DHT22;17683;53.360;9.736;2023-02-15T04:24:14;2.30;99.90
30648;DHT22;17683;53.360;9.736;2023-02-15T04:26:59;2.20;99.90
30648;DHT22;17683;53.360;9.736;2023-02-15T04:29:25;2.20;99.90
30648;DHT22;17683;53.360;9.736;2023-02-15T04:31:53;2.20;99.90
30648;DHT22;17683;53.360;9.736;2023-02-15T04:34:19;2.30;99.90
30648;DHT22;17683;53.360;9.736;2023-02-15T04:36:45;2.20;99.90
30648;DHT22;17683;53.360;9.736;2023-02-15T04:39:15;2.20;99.90
30648;DHT22;17683;53.360;9.736;2023-02-15T04:41:41;2.20;99.90
30648;DHT22;17683;53.360;9.736;2023-02-15T04:44:06;2.10;99.90
30648;DHT22;17683;53.360;9.736;2023-02-15T04:46:32;2.10;99.90
30648;DHT22;17683;53.360;9.736;2023-02-15T04:48:58;2.10;99.90
30648;DHT22;17683;53.360;9.736;2023-02-15T04:51:24;2.00;99.90
30648;DHT22;17683;53.360;9.736;2023-02-15T04:53:50;2.10;99.90
30648;DHT22;17683;53.360;9.736;2023-02-15T04:56:18;2.10;99.90
30648;DHT22;17683;53.360;9.736;2023-02-15T04:58:44;2.00;99.90
30648;DHT22;17683;53.360;9.736;2023-02-15T05:01:10;2.10;99.90
30648;DHT22;17683;53.360;9.736;2023-02-15T05:03:36;2.00;99.90
30648;DHT22;17683;53.360;9.736;2023-02-15T05:06:03;1.90;99.90
30648;DHT22;17683;53.360;9.736;2023-02-15T05:08:29;1.90;99.90
30648;DHT22;17683;53.360;9.736;2023-02-15T05:10:56;1.90;99.90
30648;DHT22;17683;53.360;9.736;2023-02-15T05:13:21;1.80;99.90
30648;DHT22;17683;53.360;9.736;2023-02-15T05:15:49;1.90;99.90
30648;DHT22;17683;53.360;9.736;2023-02-15T05:18:16;1.80;99.90
30648;DHT22;17683;53.360;9.736;2023-02-15T05:20:42;1.80;99.90
30648;DHT22;17683;53.360;9.736;2023-02-15T05:23:08;1.90;99.90
30648;DHT22;17683;53.360;9.736;2023-02-15T05:25:34;1.80;99.90
30648;DHT22;17683;53.360;9.736;2023-02-15T05:28:18;1.80;99.90
30648;DHT22;17683;53.360;9.736;2023-02-15T05:30:57;1.80;99.90
30648;DHT22;17683;53.360;9.736;2023-02-15T05:33:25;1.80;99.90
30648;DHT22;17683;53.360;9.736;2023-02-15T05:35:51;1.80;99.90
30648;DHT22;17683;53.360;9.736;2023-02-15T05:38:16;1.70;99.90
30648;DHT22;17683;53.360;9.736;2023-02-15T05:40:42;1.70;99.90
30648;DHT22;17683;53.360;9.736;2023-02-15T05:43:08;1.70;99.90
30648;DHT22;17683;53.360;9.736;2023-02-15T05:45:33;1.70;99.90
30648;DHT22;17683;53.360;9.736;2023-02-15T05:47:59;1.70;99.90
30648;DHT22;17683;53.360;9.736;2023-02-15T05:50:25;1.70;99.90
30648;DHT22;17683;53.360;9.736;2023-02-15T05:52:51;1.70;99.90
30648;DHT22;17683;53.360;9.736;2023-02-15T05:55:17;1.70;99.90
30648;DHT22;17683;53.360;9.736;2023-02-15T05:57:43;1.70;99.90
30648;DHT22;17683;53.360;9.736;2023-02-15T06:00:09;1.70;99.90
30648;DHT22;17683;53.360;9.736;2023-02-15T06:02:37;1.70;99.90
30648;DHT22;17683;53.360;9.736;2023-02-15T06:05:04;1.70;99.90
30648;DHT22;17683;53.360;9.736;2023-02-15T06:07:31;1.60;99.90
30648;DHT22;17683;53.360;9.736;2023-02-15T06:09:57;1.60;99.90
30648;DHT22;17683;53.360;9.736;2023-02-15T06:12:22;1.60;99.90
30648;DHT22;17683;53.360;9.736;2023-02-15T06:14:48;1.50;99.90
30648;DHT22;17683;53.360;9.736;2023-02-15T06:17:14;1.50;99.90
30648;DHT22;17683;53.360;9.736;2023-02-15T06:19:39;1.50;99.90
30648;DHT22;17683;53.360;9.736;2023-02-15T06:22:05;1.50;99.90
30648;DHT22;17683;53.360;9.736;2023-02-15T06:24:32;1.50;99.90
30648;DHT22;17683;53.360;9.736;2023-02-15T06:26:57;1.50;99.90
30648;DHT22;17683;53.360;9.736;2023-02-15T06:29:23;1.50;99.90
30648;DHT22;17683;53.360;9.736;2023-02-15T06:31:49;1.50;99.90
30648;DHT22;17683;53.360;9.736;2023-02-15T06:34:15;1.50;99.90
30648;DHT22;17683;53.360;9.736;2023-02-15T06:36:41;1.50;99.90
30648;DHT22;17683;53.360;9.736;2023-02-15T06:39:06;1.50;99.90
30648;DHT22;17683;53.360;9.736;2023-02-15T06:41:32;1.50;99.90
30648;DHT22;17683;53.360;9.736;2023-02-15T06:43:58;1.50;99.90
30648;DHT22;17683;53.360;9.736;2023-02-15T06:46:24;1.60;99.90
30648;DHT22;17683;53.360;9.736;2023-02-15T06:48:49;1.60;99.90
30648;DHT22;17683;53.360;9.736;2023-02-15T06:51:15;1.50;99.90
30648;DHT22;17683;53.360;9.736;2023-02-15T06:53:41;1.50;99.90
30648;DHT22;17683;53.360;9.736;2023-02-15T06:56:09;1.50;99.90
30648;DHT22;17683;53.360;9.736;2023-02-15T06:58:39;1.50;99.90
30648;DHT22;17683;53.360;9.736;2023-02-15T07:01:06;1.50;99.90
30648;DHT22;17683;53.360;9.736;2023-02-15T07:03:32;1.50;99.90
30648;DHT22;17683;53.360;9.736;2023-02-15T07:05:59;1.50;99.90
30648;DHT22;17683;53.360;9.736;2023-02-15T07:08:26;1.40;99.90
30648;DHT22;17683;53.360;9.736;2023-02-15T07:10:53;1.50;99.90
30648;DHT22;17683;53.360;9.736;2023-02-15T07:13:19;1.50;99.90
30648;DHT22;17683;53.360;9.736;2023-02-15T07:15:47;1.50;99.90
30648;DHT22;17683;53.360;9.736;2023-02-15T07:18:13;1.40;99.90
30648;DHT22;17683;53.360;9.736;2023-02-15T07:20:39;1.50;99.90
30648;DHT22;17683;53.360;9.736;2023-02-15T07:23:07;1.50;99.90
30648;DHT22;17683;53.360;9.736;2023-02-15T07:25:33;1.50;99.90
30648;DHT22;17683;53.360;9.736;2023-02-15T07:28:01;1.50;99.90
30648;DHT22;17683;53.360;9.736;2023-02-15T07:30:28;1.60;99.90
30648;DHT22;17683;53.360;9.736;2023-02-15T07:32:58;1.60;99.90
30648;DHT22;17683;53.360;9.736;2023-02-15T07:35:49;1.60;99.90
30648;DHT22;17683;53.360;9.736;2023-02-15T07:38:15;1.70;99.90
30648;DHT22;17683;53.360;9.736;2023-02-15T07:40:42;1.80;99.90
30648;DHT22;17683;53.360;9.736;2023-02-15T07:43:08;1.70;99.90
30648;DHT22;17683;53.360;9.736;2023-02-15T07:45:33;1.60;99.90
30648;DHT22;17683;53.360;9.736;2023-02-15T07:48:00;1.60;99.90
30648;DHT22;17683;53.360;9.736;2023-02-15T07:50:26;1.70;99.90
30648;DHT22;17683;53.360;9.736;2023-02-15T07:52:52;1.60;99.90
30648;DHT22;17683;53.360;9.736;2023-02-15T07:55:18;1.70;99.90
30648;DHT22;17683;53.360;9.736;2023-02-15T07:57:45;1.70;99.90
30648;DHT22;17683;53.360;9.736;2023-02-15T08:00:15;1.50;99.90
30648;DHT22;17683;53.360;9.736;2023-02-15T08:02:47;1.50;99.90
30648;DHT22;17683;53.360;9.736;2023-02-15T08:05:13;1.60;99.90
30648;DHT22;17683;53.360;9.736;2023-02-15T08:07:38;1.60;99.90
30648;DHT22;17683;53.360;9.736;2023-02-15T08:10:04;1.60;99.90
30648;DHT22;17683;53.360;9.736;2023-02-15T08:12:30;1.60;99.90
30648;DHT22;17683;53.360;9.736;2023-02-15T08:14:56;1.70;99.90
30648;DHT22;17683;53.360;9.736;2023-02-15T08:17:22;1.70;99.90
30648;DHT22;17683;53.360;9.736;2023-02-15T08:19:48;1.80;99.90
30648;DHT22;17683;53.360;9.736;2023-02-15T08:22:14;1.70;99.90
30648;DHT22;17683;53.360;9.736;2023-02-15T08:24:40;1.60;99.90
30648;DHT22;17683;53.360;9.736;2023-02-15T08:27:09;1.60;99.90
30648;DHT22;17683;53.360;9.736;2023-02-15T08:29:36;1.70;99.90
30648;DHT22;17683;53.360;9.736;2023-02-15T08:32:07;1.70;99.90
30648;DHT22;17683;53.360;9.736;2023-02-15T08:34:37;1.70;99.90
30648;DHT22;17683;53.360;9.736;2023-02-15T08:37:03;1.80;99.90
30648;DHT22;17683;53.360;9.736;2023-02-15T08:39:31;1.80;99.90
30648;DHT22;17683;53.360;9.736;2023-02-15T08:41:57;1.90;99.90
30648;DHT22;17683;53.360;9.736;2023-02-15T08:44:23;1.90;99.90
30648;DHT22;17683;53.360;9.736;2023-02-15T08:46:49;1.90;99.90
30648;DHT22;17683;53.360;9.736;2023-02-15T08:49:18;1.90;99.90
30648;DHT22;17683;53.360;9.736;2023-02-15T08:51:45;1.90;99.90
30648;DHT22;17683;53.360;9.736;2023-02-15T08:54:16;2.00;99.90
30648;DHT22;17683;53.360;9.736;2023-02-15T08:56:43;2.00;99.90
30648;DHT22;17683;53.360;9.736;2023-02-15T08:59:15;2.00;99.90
30648;DHT22;17683;53.360;9.736;2023-02-15T09:01:41;2.10;99.90
30648;DHT22;17683;53.360;9.736;2023-02-15T09:04:08;2.20;99.90
30648;DHT22;17683;53.360;9.736;2023-02-15T09:06:34;2.30;99.90
30648;DHT22;17683;53.360;9.736;2023-02-15T09:09:00;2.30;99.90
30648;DHT22;17683;53.360;9.736;2023-02-15T09:11:33;2.40;99.90
30648;DHT22;17683;53.360;9.736;2023-02-15T09:14:08;2.50;99.90
30648;DHT22;17683;53.360;9.736;2023-02-15T09:16:36;2.50;99.90
30648;DHT22;17683;53.360;9.736;2023-02-15T09:19:03;2.50;99.90
30648;DHT22;17683;53.360;9.736;2023-02-15T09:21:33;2.60;99.90
30648;DHT22;17683;53.360;9.736;2023-02-15T09:24:03;2.60;99.90
30648;DHT22;17683;53.360;9.736;2023-02-15T09:26:31;2.70;99.90
30648;DHT22;17683;53.360;9.736;2023-02-15T09:29:00;2.80;99.90
30648;DHT22;17683;53.360;9.736;2023-02-15T09:31:28;2.90;99.90
30648;DHT22;17683;53.360;9.736;2023-02-15T09:33:55;3.00;99.90
30648;DHT22;17683;53.360;9.736;2023-02-15T09:36:50;3.10;99.90
30648;DHT22;17683;53.360;9.736;2023-02-15T09:39:19;3.20;99.90
30648;DHT22;17683;53.360;9.736;2023-02-15T09:42:11;3.30;99.90
30648;DHT22;17683;53.360;9.736;2023-02-15T09:45:20;3.40;99.90
30648;DHT22;17683;53.360;9.736;2023-02-15T09:50:58;3.50;99.90
30648;DHT22;17683;53.360;9.736;2023-02-15T10:02:27;3.70;99.90
30648;DHT22;17683;53.360;9.736;2023-02-15T10:08:29;4.00;99.90
30648;DHT22;17683;53.360;9.736;2023-02-15T10:11:15;4.10;99.90
30648;DHT22;17683;53.360;9.736;2023-02-15T10:14:19;4.20;99.90
30648;DHT22;17683;53.360;9.736;2023-02-15T10:17:27;4.30;99.90
30648;DHT22;17683;53.360;9.736;2023-02-15T10:28:42;4.60;99.90
30648;DHT22;17683;53.360;9.736;2023-02-15T10:32:30;4.70;99.90
30648;DHT22;17683;53.360;9.736;2023-02-15T10:34:50;4.80;99.90
30648;DHT22;17683;53.360;9.736;2023-02-15T10:43:37;5.20;99.90
30648;DHT22;17683;53.360;9.736;2023-02-15T10:54:22;5.60;99.90
30648;DHT22;17683;53.360;9.736;2023-02-15T11:02:01;5.90;99.90
30648;DHT22;17683;53.360;9.736;2023-02-15T11:07:47;6.00;99.90
30648;DHT22;17683;53.360;9.736;2023-02-15T11:10:32;6.10;99.90
30648;DHT22;17683;53.360;9.736;2023-02-15T11:13:26;6.10;99.90
30648;DHT22;17683;53.360;9.736;2023-02-15T11:20:59;6.50;99.90
30648;DHT22;17683;53.360;9.736;2023-02-15T11:23:27;6.50;99.90
30648;DHT22;17683;53.360;9.736;2023-02-15T11:26:02;6.60;99.90
30648;DHT22;17683;53.360;9.736;2023-02-15T11:28:40;6.80;99.90
30648;DHT22;17683;53.360;9.736;2023-02-15T11:31:41;6.90;99.90
30648;DHT22;17683;53.360;9.736;2023-02-15T11:34:17;7.00;99.90
30648;DHT22;17683;53.360;9.736;2023-02-15T11:36:45;7.20;99.90
30648;DHT22;17683;53.360;9.736;2023-02-15T11:39:15;7.20;99.90
30648;DHT22;17683;53.360;9.736;2023-02-15T11:41:46;7.30;99.90
30648;DHT22;17683;53.360;9.736;2023-02-15T11:44:22;7.40;99.90
30648;DHT22;17683;53.360;9.736;2023-02-15T11:46:49;7.50;99.90
30648;DHT22;17683;53.360;9.736;2023-02-15T11:49:31;7.60;99.90
30648;DHT22;17683;53.360;9.736;2023-02-15T11:52:05;7.70;99.90
30648;DHT22;17683;53.360;9.736;2023-02-15T11:54:33;7.70;99.90
30648;DHT22;17683;53.360;9.736;2023-02-15T11:57:16;7.80;99.90
30648;DHT22;17683;53.360;9.736;2023-02-15T11:59:51;7.90;99.90
30648;DHT22;17683;53.360;9.736;2023-02-15T12:02:22;8.00;99.90
30648;DHT22;17683;53.360;9.736;2023-02-15T12:05:15;8.00;99.90
30648;DHT22;17683;53.360;9.736;2023-02-15T12:07:47;8.10;99.90
30648;DHT22;17683;53.360;9.736;2023-02-15T12:10:24;8.10;99.90
30648;DHT22;17683;53.360;9.736;2023-02-15T12:13:20;8.20;99.90
30648;DHT22;17683;53.360;9.736;2023-02-15T12:15:52;8.20;99.90
30648;DHT22;17683;53.360;9.736;2023-02-15T12:18:42;8.20;99.90
30648;DHT22;17683;53.360;9.736;2023-02-15T12:21:15;8.30;99.90
30648;DHT22;17683;53.360;9.736;2023-02-15T12:23:52;8.40;99.90
30648;DHT22;17683;53.360;9.736;2023-02-15T12:28:51;8.50;99.90
30648;DHT22;17683;53.360;9.736;2023-02-15T12:31:26;8.50;99.90
30648;DHT22;17683;53.360;9.736;2023-02-15T12:33:55;8.60;99.90
30648;DHT22;17683;53.360;9.736;2023-02-15T12:36:25;8.70;99.90
30648;DHT22;17683;53.360;9.736;2023-02-15T12:39:21;8.70;99.90
30648;DHT22;17683;53.360;9.736;2023-02-15T12:42:02;8.70;99.90
30648;DHT22;17683;53.360;9.736;2023-02-15T12:44:36;8.80;99.90
30648;DHT22;17683;53.360;9.736;2023-02-15T12:49:36;8.80;99.90
30648;DHT22;17683;53.360;9.736;2023-02-15T12:54:47;8.80;99.90
30648;DHT22;17683;53.360;9.736;2023-02-15T13:02:22;9.00;99.90
30648;DHT22;17683;53.360;9.736;2023-02-15T13:04:49;9.00;99.90
30648;DHT22;17683;53.360;9.736;2023-02-15T13:07:15;9.00;99.90
30648;DHT22;17683;53.360;9.736;2023-02-15T13:09:41;9.00;99.90
30648;DHT22;17683;53.360;9.736;2023-02-15T13:12:20;9.10;99.90
30648;DHT22;17683;53.360;9.736;2023-02-15T13:14:48;9.00;99.90
30648;DHT22;17683;53.360;9.736;2023-02-15T13:17:17;9.10;99.90
30648;DHT22;17683;53.360;9.736;2023-02-15T13:19:47;9.10;99.90
30648;DHT22;17683;53.360;9.736;2023-02-15T13:22:17;9.10;99.90
30648;DHT22;17683;53.360;9.736;2023-02-15T13:24:57;9.10;99.90
30648;DHT22;17683;53.360;9.736;2023-02-15T13:27:31;9.20;99.90
30648;DHT22;17683;53.360;9.736;2023-02-15T13:30:03;9.20;99.90
30648;DHT22;17683;53.360;9.736;2023-02-15T13:32:37;9.20;99.90
30648;DHT22;17683;53.360;9.736;2023-02-15T13:35:15;9.30;99.90
30648;DHT22;17683;53.360;9.736;2023-02-15T13:49:13;9.40;99.90
30648;DHT22;17683;53.360;9.736;2023-02-15T13:51:52;9.30;99.90
30648;DHT22;17683;53.360;9.736;2023-02-15T13:54:45;9.30;99.90
30648;DHT22;17683;53.360;9.736;2023-02-15T13:57:21;9.30;99.90
30648;DHT22;17683;53.360;9.736;2023-02-15T14:03:40;9.30;99.90
30648;DHT22;17683;53.360;9.736;2023-02-15T14:11:49;9.50;99.90
30648;DHT22;17683;53.360;9.736;2023-02-15T14:17:35;9.50;99.90
30648;DHT22;17683;53.360;9.736;2023-02-15T14:22:49;9.50;99.90
30648;DHT22;17683;53.360;9.736;2023-02-15T14:25:38;9.50;99.90
30648;DHT22;17683;53.360;9.736;2023-02-15T14:30:44;9.50;99.90
30648;DHT22;17683;53.360;9.736;2023-02-15T14:35:40;9.40;99.90
30648;DHT22;17683;53.360;9.736;2023-02-15T14:40:59;9.40;99.90
30648;DHT22;17683;53.360;9.736;2023-02-15T14:59:39;9.20;99.90
30648;DHT22;17683;53.360;9.736;2023-02-15T15:04:35;9.20;99.90
30648;DHT22;17683;53.360;9.736;2023-02-15T15:09:43;9.10;99.90
30648;DHT22;17683;53.360;9.736;2023-02-15T15:14:50;9.10;99.90
30648;DHT22;17683;53.360;9.736;2023-02-15T15:20:00;9.10;99.90
30648;DHT22;17683;53.360;9.736;2023-02-15T15:22:27;9.00;99.90
30648;DHT22;17683;53.360;9.736;2023-02-15T15:24:55;9.00;99.90
30648;DHT22;17683;53.360;9.736;2023-02-15T15:27:50;8.90;99.90
30648;DHT22;17683;53.360;9.736;2023-02-15T15:33:11;8.90;99.90
30648;DHT22;17683;53.360;9.736;2023-02-15T15:38:48;8.70;99.90
30648;DHT22;17683;53.360;9.736;2023-02-15T15:49:38;8.70;99.90
30648;DHT22;17683;53.360;9.736;2023-02-15T15:52:30;8.60;99.90
30648;DHT22;17683;53.360;9.736;2023-02-15T15:55:16;8.60;99.90
30648;DHT22;17683;53.360;9.736;2023-02-15T15:57:44;8.50;99.90
30648;DHT22;17683;53.360;9.736;2023-02-15T16:00:36;8.50;99.90
30648;DHT22;17683;53.360;9.736;2023-02-15T16:03:04;8.40;99.90
30648;DHT22;17683;53.360;9.736;2023-02-15T16:05:38;8.40;99.90
30648;DHT22;17683;53.360;9.736;2023-02-15T16:08:06;8.30;99.90
30648;DHT22;17683;53.360;9.736;2023-02-15T16:10:33;8.20;99.90
30648;DHT22;17683;53.360;9.736;2023-02-15T16:13:01;8.20;99.90
30648;DHT22;17683;53.360;9.736;2023-02-15T16:15:43;8.10;99.90
30648;DHT22;17683;53.360;9.736;2023-02-15T16:18:18;8.00;99.90
30648;DHT22;17683;53.360;9.736;2023-02-15T16:21:02;7.90;99.90
30648;DHT22;17683;53.360;9.736;2023-02-15T16:23:37;7.70;99.90
30648;DHT22;17683;53.360;9.736;2023-02-15T16:28:54;7.40;99.90
30648;DHT22;17683;53.360;9.736;2023-02-15T16:31:21;7.30;99.90
30648;DHT22;17683;53.360;9.736;2023-02-15T16:33:53;7.30;99.90
30648;DHT22;17683;53.360;9.736;2023-02-15T16:36:26;7.20;99.90
30648;DHT22;17683;53.360;9.736;2023-02-15T16:41:27;6.90;99.90
30648;DHT22;17683;53.360;9.736;2023-02-15T16:43:55;6.90;99.90
30648;DHT22;17683;53.360;9.736;2023-02-15T16:46:27;6.80;99.90
30648;DHT22;17683;53.360;9.736;2023-02-15T16:48:57;6.80;99.90
30648;DHT22;17683;53.360;9.736;2023-02-15T16:51:26;6.70;99.90
30648;DHT22;17683;53.360;9.736;2023-02-15T16:53:57;6.70;99.90
30648;DHT22;17683;53.360;9.736;2023-02-15T16:56:29;6.60;99.90
30648;DHT22;17683;53.360;9.736;2023-02-15T16:58:58;6.50;99.90
30648;DHT22;17683;53.360;9.736;2023-02-15T17:01:27;6.50;99.90
30648;DHT22;17683;53.360;9.736;2023-02-15T17:04:15;6.50;99.90
30648;DHT22;17683;53.360;9.736;2023-02-15T17:06:59;6.40;99.90
30648;DHT22;17683;53.360;9.736;2023-02-15T17:09:25;6.40;99.90
30648;DHT22;17683;53.360;9.736;2023-02-15T17:11:51;6.30;99.90
30648;DHT22;17683;53.360;9.736;2023-02-15T17:14:37;6.30;99.90
30648;DHT22;17683;53.360;9.736;2023-02-15T17:17:11;6.20;99.90
30648;DHT22;17683;53.360;9.736;2023-02-15T17:19:51;6.20;99.90
30648;DHT22;17683;53.360;9.736;2023-02-15T17:22:25;6.10;99.90
30648;DHT22;17683;53.360;9.736;2023-02-15T17:25:00;6.00;99.90
30648;DHT22;17683;53.360;9.736;2023-02-15T17:27:31;6.00;99.90
30648;DHT22;17683;53.360;9.736;2023-02-15T17:30:10;5.90;99.90
30648;DHT22;17683;53.360;9.736;2023-02-15T17:32:38;5.90;99.90
30648;DHT22;17683;53.360;9.736;2023-02-15T17:35:20;5.90;99.90
30648;DHT22;17683;53.360;9.736;2023-02-15T17:37:48;5.80;99.90
30648;DHT22;17683;53.360;9.736;2023-02-15T17:40:21;5.80;99.90
30648;DHT22;17683;53.360;9.736;2023-02-15T17:42:47;5.70;99.90
30648;DHT22;17683;53.360;9.736;2023-02-15T17:45:14;5.70;99.90
30648;DHT22;17683;53.360;9.736;2023-02-15T17:47:40;5.60;99.90
30648;DHT22;17683;53.360;9.736;2023-02-15T17:50:06;5.50;99.90
30648;DHT22;17683;53.360;9.736;2023-02-15T17:52:33;5.50;99.90
30648;DHT22;17683;53.360;9.736;2023-02-15T17:55:07;5.40;99.90
30648;DHT22;17683;53.360;9.736;2023-02-15T17:57:56;5.40;99.90
30648;DHT22;17683;53.360;9.736;2023-02-15T18:00:21;5.30;99.90
30648;DHT22;17683;53.360;9.736;2023-02-15T18:03:09;5.30;99.90
30648;DHT22;17683;53.360;9.736;2023-02-15T18:05:54;5.30;99.90
30648;DHT22;17683;53.360;9.736;2023-02-15T18:08:39;5.20;99.90
30648;DHT22;17683;53.360;9.736;2023-02-15T18:11:24;5.20;99.90
30648;DHT22;17683;53.360;9.736;2023-02-15T18:14:00;5.10;99.90
30648;DHT22;17683;53.360;9.736;2023-02-15T18:16:29;5.10;99.90
30648;DHT22;17683;53.360;9.736;2023-02-15T18:18:56;5.10;99.90
30648;DHT22;17683;53.360;9.736;2023-02-15T18:21:22;5.00;99.90
30648;DHT22;17683;53.360;9.736;2023-02-15T18:23:48;5.00;99.90
30648;DHT22;17683;53.360;9.736;2023-02-15T18:26:22;5.00;99.90
30648;DHT22;17683;53.360;9.736;2023-02-15T18:28:49;5.00;99.90
30648;DHT22;17683;53.360;9.736;2023-02-15T18:31:15;4.90;99.90
30648;DHT22;17683;53.360;9.736;2023-02-15T18:33:44;4.90;99.90
30648;DHT22;17683;53.360;9.736;2023-02-15T18:36:28;4.80;99.90
30648;DHT22;17683;53.360;9.736;2023-02-15T18:38:55;4.80;99.90
30648;DHT22;17683;53.360;9.736;2023-02-15T18:41:21;4.80;99.90
30648;DHT22;17683;53.360;9.736;2023-02-15T18:43:51;4.70;99.90
30648;DHT22;17683;53.360;9.736;2023-02-15T18:46:21;4.70;99.90
30648;DHT22;17683;53.360;9.736;2023-02-15T18:48:47;4.60;99.90
30648;DHT22;17683;53.360;9.736;2023-02-15T18:51:22;4.60;99.90
30648;DHT22;17683;53.360;9.736;2023-02-15T18:53:50;4.60;99.90
30648;DHT22;17683;53.360;9.736;2023-02-15T18:56:19;4.60;99.90
30648;DHT22;17683;53.360;9.736;2023-02-15T18:58:45;4.50;99.90
30648;DHT22;17683;53.360;9.736;2023-02-15T19:01:19;4.50;99.90
30648;DHT22;17683;53.360;9.736;2023-02-15T19:03:47;4.50;99.90
30648;DHT22;17683;53.360;9.736;2023-02-15T19:06:14;4.50;99.90
30648;DHT22;17683;53.360;9.736;2023-02-15T19:08:44;4.50;99.90
30648;DHT22;17683;53.360;9.736;2023-02-15T19:11:18;4.40;99.90
30648;DHT22;17683;53.360;9.736;2023-02-15T19:13:45;4.40;99.90